Flight Briefing for CPX248

Departure Arrival
Theodore Francis Green State Airport (KPVD)
Click to view FAA NOTAMS
Miami International Airport (KMIA)
Click to view FAA NOTAMS
Departure Time Arrival Time
N/A N/A
Aircraft Distance
B767-300BDSF 1351nm
Departure METAR Arrival METAR
KPVD 192251Z 33007KT 10SM BKN250 M02/M16 A3049 RMK AO2 SLP325 T10171161 KMIA 192253Z 10011KT 10SM SCT027 26/21 A3013 RMK AO2 SLP202 T02560206
Suggested Route
JUMPR RIFLE J174 SWL CEBEE WETRO DIW AR22 JORAY HILEY7


View recent IFR Routes data
Notes



Charts and Procedures

Charts for KPVD
No chart available
Charts for KMIA
No chart available

Ventusky Weather




{"cat":null,"equip":null,"transponder":null,"pbn":"PBN\/","maxpax":null,"oew":"0.0","mzfw":"0.0","mtow":"0.0","mlw":"0.0","maxfuel":"0.0"} DEVELOPMENTAL TEST USE ONLY